This is the latest recevied weather packets stored in our database for station/object KC8PTQ. If no packets are shown the sender has not sent any weather packets the latest 10 day(s).
| Time | Temp. | Humidity | Pressure | Rain* | Wind** | Luminosity | Snow |
|---|---|---|---|---|---|---|---|
| 1778183786 | 13.33° C | 48% | 1013.4 hPa | 0 mm | - | 446 W/m² | - |
| 1778183483 | 13.33° C | 47% | 1013.3 hPa | 0 mm | - | 397 W/m² | - |
| 1778183180 | 13.33° C | 50% | 1013.3 hPa | 0 mm | - | 131 W/m² | - |
| 1778182875 | 12.78° C | 48% | 1013.6 hPa | 0 mm | - | 468 W/m² | - |
| 1778182573 | 12.78° C | 49% | 1013.5 hPa | 0 mm | - | 123 W/m² | - |
| 1778182270 | 12.22° C | 52% | 1013.5 hPa | 0 mm | - | 111 W/m² | - |
| 1778181966 | 13.89° C | 46% | 1013.6 hPa | 0 mm | - | 129 W/m² | - |
| 1778181663 | 13.33° C | 49% | 1013.4 hPa | 0 mm | - | 143 W/m² | - |
| 1778181358 | 12.78° C | 49% | 1013.6 hPa | 0 mm | - | 141 W/m² | - |
| 1778181056 | 13.33° C | 48% | 1013.5 hPa | 0 mm | - | 121 W/m² | - |
| 1778180753 | 13.33° C | 50% | 1013.6 hPa | 0 mm | - | 598 W/m² | - |
| 1778180452 | 13.89° C | 46% | 1013.7 hPa | 0 mm | - | 645 W/m² | - |
| 1778180150 | 13.33° C | 48% | 1013.7 hPa | 0 mm | - | 723 W/m² | - |
| 1778179846 | 13.33° C | 47% | 1013.6 hPa | 0 mm | - | 158 W/m² | - |
| 1778179544 | 12.78° C | 51% | 1013.7 hPa | 0 mm | - | 694 W/m² | - |
| 1778179242 | 13.33° C | 48% | 1013.6 hPa | 0 mm | - | 144 W/m² | - |
| 1778178937 | 12.78° C | 46% | 1013.5 hPa | 0 mm | - | 152 W/m² | - |
| 1778178635 | 13.33° C | 45% | 1013.8 hPa | 0 mm | - | 126 W/m² | - |
| 1778178331 | 12.78° C | 52% | 1013.6 hPa | 0 mm | - | 366 W/m² | - |
| 1778178027 | 13.33° C | 50% | 1013.7 hPa | 0 mm | - | 158 W/m² | - |
| 1778177724 | 13.89° C | 52% | 1013.7 hPa | 0 mm | - | 111 W/m² | - |
| 1778177420 | 13.89° C | 46% | 1013.7 hPa | 0 mm | - | 146 W/m² | - |
| 1778177117 | 13.33° C | 48% | 1013.9 hPa | 0 mm | - | 453 W/m² | - |
| 1778176814 | 13.89° C | 47% | 1013.8 hPa | 0 mm | - | 159 W/m² | - |
| 1778176510 | 13.33° C | 48% | 1013.8 hPa | 0 mm | - | 462 W/m² | - |
* Rain latest hour (hover to see other rain measurements)
** Current wind speed in m/s (hover to see current wind gust speed)